Gardendale, Texas
Current Conditions -  °F | °C
As of 11:53 AM on Saturday 20 Dec 2014 (Local Time) from KODO Reporting Station
Few Clouds Few Clouds  
Wind Chill: 44°   Ceiling: Unl
Heat Index: 47°   Visibility: 10mi
Dew Point: 40°   Wind: 7mph
Humidity: 77%   Direction: 200°SSW
Pressure: 30.15"   Gusts: NA
Location:  32.02°N, 102.36°W
Report Text: KODO 201753Z AUTO 20006KT 10SM FEW009 08/04 A3015 RMK AO2 SLP201 T00830044 10083 20022 58003
Loading
Personal Weather Stations






























Interactive Weather Map New forecast layout! Learn more

10-Day Weather Forecast

Advertisements
Track Severe Weather on mobile